Y88 weather

Green Lake Airport
Interlochen, Michigan, United States

Public forecast

Using degrees Fahrenheit for public forecast. Weather courtesy of forecast.io.

METAR (pilot weather report)

Closest report is Cherry Capital Airport, 11.1 nm (20.5 km) NE. Retrieved 2019/06/19 09:53 UTC (37 minutes ago):

KTVC 190953Z AUTO 00000KT 10SM BKN004 OVC007 15/13 A2983 RMK AO2 SLP100 T01500133

TAF (pilot weather forecast)

Closest forecast is Cherry Capital Airport, 11.1 nm (20.5 km) NE. Retrieved 2019/06/19 06:48 UTC (4 hours ago):

TAF KTVC 190546Z 1906/2006 00000KT P6SM BKN045 OVC090 TEMPO 1908/1912 6SM BR BKN025 BKN090 FM191200 00000KT P6SM OVC015 FM191600 01005KT P6SM BKN025 FM191800 01005KT P6SM BKN040 FM192100 01007KT P6SM SCT090 FM200300 VRB03KT P6SM BKN050